sensor_id;sensor_type;location;lat;lon;timestamp;temperature;humidity
40323;DHT22;26030;51.164;17.100;2022-08-20T00:03:07;28.90;63.70
40323;DHT22;26030;51.164;17.100;2022-08-20T00:08:12;28.80;63.60
40323;DHT22;26030;51.164;17.100;2022-08-20T00:13:17;28.90;63.80
40323;DHT22;26030;51.164;17.100;2022-08-20T00:18:23;28.80;63.50
40323;DHT22;26030;51.164;17.100;2022-08-20T00:23:27;28.90;63.60
40323;DHT22;26030;51.164;17.100;2022-08-20T00:28:33;28.90;63.90
40323;DHT22;26030;51.164;17.100;2022-08-20T00:33:36;28.90;63.40
40323;DHT22;26030;51.164;17.100;2022-08-20T00:38:40;28.80;63.20
40323;DHT22;26030;51.164;17.100;2022-08-20T00:43:50;28.80;63.40
40323;DHT22;26030;51.164;17.100;2022-08-20T00:49:21;28.80;63.40
40323;DHT22;26030;51.164;17.100;2022-08-20T00:59:36;28.80;63.10
40323;DHT22;26030;51.164;17.100;2022-08-20T01:04:40;28.80;63.10
40323;DHT22;26030;51.164;17.100;2022-08-20T01:09:48;28.70;64.20
40323;DHT22;26030;51.164;17.100;2022-08-20T01:15:01;28.70;63.50
40323;DHT22;26030;51.164;17.100;2022-08-20T01:20:15;28.70;63.60
40323;DHT22;26030;51.164;17.100;2022-08-20T01:25:40;28.70;63.60
40323;DHT22;26030;51.164;17.100;2022-08-20T01:30:45;28.70;63.70
40323;DHT22;26030;51.164;17.100;2022-08-20T01:35:47;28.70;64.00
40323;DHT22;26030;51.164;17.100;2022-08-20T01:46:39;28.70;63.70
40323;DHT22;26030;51.164;17.100;2022-08-20T01:51:45;28.70;63.70
40323;DHT22;26030;51.164;17.100;2022-08-20T01:56:58;28.70;63.70
40323;DHT22;26030;51.164;17.100;2022-08-20T02:02:03;28.70;63.70
40323;DHT22;26030;51.164;17.100;2022-08-20T02:07:11;28.70;63.60
40323;DHT22;26030;51.164;17.100;2022-08-20T02:12:18;28.60;63.60
40323;DHT22;26030;51.164;17.100;2022-08-20T02:17:21;28.60;63.60
40323;DHT22;26030;51.164;17.100;2022-08-20T02:27:54;28.70;64.00
40323;DHT22;26030;51.164;17.100;2022-08-20T02:33:02;28.60;63.60
40323;DHT22;26030;51.164;17.100;2022-08-20T02:38:06;28.60;63.90
40323;DHT22;26030;51.164;17.100;2022-08-20T02:43:10;28.60;63.60
40323;DHT22;26030;51.164;17.100;2022-08-20T02:48:14;28.60;63.70
40323;DHT22;26030;51.164;17.100;2022-08-20T02:53:22;28.60;63.80
40323;DHT22;26030;51.164;17.100;2022-08-20T02:58:28;28.60;63.80
40323;DHT22;26030;51.164;17.100;2022-08-20T03:03:30;28.60;63.70
40323;DHT22;26030;51.164;17.100;2022-08-20T03:08:33;28.60;63.70
40323;DHT22;26030;51.164;17.100;2022-08-20T03:13:36;28.60;63.40
40323;DHT22;26030;51.164;17.100;2022-08-20T03:18:39;28.60;63.60
40323;DHT22;26030;51.164;17.100;2022-08-20T03:23:44;28.60;63.60
40323;DHT22;26030;51.164;17.100;2022-08-20T03:28:47;28.60;63.60
40323;DHT22;26030;51.164;17.100;2022-08-20T03:33:50;28.60;64.20
40323;DHT22;26030;51.164;17.100;2022-08-20T03:38:58;28.60;63.70
40323;DHT22;26030;51.164;17.100;2022-08-20T03:44:04;28.60;63.50
40323;DHT22;26030;51.164;17.100;2022-08-20T03:49:07;28.60;63.40
40323;DHT22;26030;51.164;17.100;2022-08-20T03:54:09;28.60;63.80
40323;DHT22;26030;51.164;17.100;2022-08-20T03:59:12;28.60;63.70
40323;DHT22;26030;51.164;17.100;2022-08-20T04:04:14;28.50;63.30
40323;DHT22;26030;51.164;17.100;2022-08-20T04:09:16;28.60;63.30
40323;DHT22;26030;51.164;17.100;2022-08-20T04:14:21;28.60;63.90
40323;DHT22;26030;51.164;17.100;2022-08-20T04:19:23;28.60;63.60
40323;DHT22;26030;51.164;17.100;2022-08-20T04:24:26;28.60;63.60
40323;DHT22;26030;51.164;17.100;2022-08-20T04:29:34;28.60;63.50
40323;DHT22;26030;51.164;17.100;2022-08-20T04:34:37;28.50;63.30
40323;DHT22;26030;51.164;17.100;2022-08-20T04:39:41;28.50;63.40
40323;DHT22;26030;51.164;17.100;2022-08-20T04:44:43;28.50;63.20
40323;DHT22;26030;51.164;17.100;2022-08-20T04:49:45;28.50;63.10
40323;DHT22;26030;51.164;17.100;2022-08-20T04:54:48;28.50;63.20
40323;DHT22;26030;51.164;17.100;2022-08-20T04:59:51;28.50;63.10
40323;DHT22;26030;51.164;17.100;2022-08-20T05:05:00;28.50;63.00
40323;DHT22;26030;51.164;17.100;2022-08-20T05:10:07;28.60;63.10
40323;DHT22;26030;51.164;17.100;2022-08-20T05:15:16;28.50;63.00
40323;DHT22;26030;51.164;17.100;2022-08-20T05:20:18;28.50;63.10
40323;DHT22;26030;51.164;17.100;2022-08-20T05:25:21;28.50;63.10
40323;DHT22;26030;51.164;17.100;2022-08-20T05:30:24;28.50;63.10
40323;DHT22;26030;51.164;17.100;2022-08-20T05:35:26;28.50;63.10
40323;DHT22;26030;51.164;17.100;2022-08-20T05:40:30;28.50;63.10
40323;DHT22;26030;51.164;17.100;2022-08-20T05:45:33;28.50;63.40
40323;DHT22;26030;51.164;17.100;2022-08-20T05:50:38;28.50;63.20
40323;DHT22;26030;51.164;17.100;2022-08-20T05:55:43;28.50;63.20
40323;DHT22;26030;51.164;17.100;2022-08-20T06:00:46;28.50;63.00
40323;DHT22;26030;51.164;17.100;2022-08-20T06:05:49;28.50;63.10
40323;DHT22;26030;51.164;17.100;2022-08-20T06:10:52;28.50;63.10
40323;DHT22;26030;51.164;17.100;2022-08-20T06:15:55;28.50;63.00
40323;DHT22;26030;51.164;17.100;2022-08-20T06:20:59;28.50;63.10
40323;DHT22;26030;51.164;17.100;2022-08-20T06:26:04;28.50;63.40
40323;DHT22;26030;51.164;17.100;2022-08-20T06:31:09;28.50;63.10
40323;DHT22;26030;51.164;17.100;2022-08-20T06:36:12;28.50;63.20
40323;DHT22;26030;51.164;17.100;2022-08-20T06:41:20;28.50;63.10
40323;DHT22;26030;51.164;17.100;2022-08-20T06:46:23;28.50;63.10
40323;DHT22;26030;51.164;17.100;2022-08-20T06:51:25;28.50;63.20
40323;DHT22;26030;51.164;17.100;2022-08-20T06:56:27;28.50;63.10
40323;DHT22;26030;51.164;17.100;2022-08-20T07:01:30;28.60;63.50
40323;DHT22;26030;51.164;17.100;2022-08-20T07:06:35;28.50;63.10
40323;DHT22;26030;51.164;17.100;2022-08-20T07:11:44;28.50;63.10
40323;DHT22;26030;51.164;17.100;2022-08-20T07:17:04;28.50;63.20
40323;DHT22;26030;51.164;17.100;2022-08-20T07:22:13;28.50;62.70
40323;DHT22;26030;51.164;17.100;2022-08-20T07:27:22;28.50;63.10
40323;DHT22;26030;51.164;17.100;2022-08-20T07:32:36;28.50;63.00
40323;DHT22;26030;51.164;17.100;2022-08-20T07:37:44;28.50;62.90
40323;DHT22;26030;51.164;17.100;2022-08-20T07:42:58;28.60;63.00
40323;DHT22;26030;51.164;17.100;2022-08-20T07:48:05;28.60;63.10
40323;DHT22;26030;51.164;17.100;2022-08-20T07:53:10;28.60;63.00
40323;DHT22;26030;51.164;17.100;2022-08-20T07:58:14;28.60;63.10
40323;DHT22;26030;51.164;17.100;2022-08-20T08:03:24;28.60;63.10
40323;DHT22;26030;51.164;17.100;2022-08-20T08:08:47;28.70;63.20
40323;DHT22;26030;51.164;17.100;2022-08-20T08:13:51;28.60;63.00
40323;DHT22;26030;51.164;17.100;2022-08-20T08:18:55;28.60;63.00
40323;DHT22;26030;51.164;17.100;2022-08-20T08:23:59;28.60;63.10
40323;DHT22;26030;51.164;17.100;2022-08-20T08:29:02;28.60;63.10
40323;DHT22;26030;51.164;17.100;2022-08-20T08:34:08;28.70;63.10
40323;DHT22;26030;51.164;17.100;2022-08-20T08:39:14;28.70;63.00
40323;DHT22;26030;51.164;17.100;2022-08-20T08:44:31;28.70;63.30
40323;DHT22;26030;51.164;17.100;2022-08-20T08:49:41;28.70;63.00
40323;DHT22;26030;51.164;17.100;2022-08-20T08:54:46;28.80;63.10
40323;DHT22;26030;51.164;17.100;2022-08-20T08:59:54;28.80;63.10
40323;DHT22;26030;51.164;17.100;2022-08-20T09:05:13;28.80;63.10
40323;DHT22;26030;51.164;17.100;2022-08-20T09:10:21;28.80;63.10
40323;DHT22;26030;51.164;17.100;2022-08-20T09:15:25;28.90;63.30
40323;DHT22;26030;51.164;17.100;2022-08-20T09:20:27;28.90;63.40
40323;DHT22;26030;51.164;17.100;2022-08-20T09:25:30;28.80;63.50
40323;DHT22;26030;51.164;17.100;2022-08-20T09:30:33;28.80;63.70
40323;DHT22;26030;51.164;17.100;2022-08-20T09:35:39;28.90;64.20
40323;DHT22;26030;51.164;17.100;2022-08-20T09:40:42;29.00;63.60
40323;DHT22;26030;51.164;17.100;2022-08-20T09:45:45;28.90;64.50
40323;DHT22;26030;51.164;17.100;2022-08-20T09:50:53;28.90;64.00
40323;DHT22;26030;51.164;17.100;2022-08-20T09:55:56;29.00;64.20
40323;DHT22;26030;51.164;17.100;2022-08-20T10:01:02;29.00;64.90
40323;DHT22;26030;51.164;17.100;2022-08-20T10:06:16;29.00;64.70
40323;DHT22;26030;51.164;17.100;2022-08-20T10:11:23;28.90;65.10
40323;DHT22;26030;51.164;17.100;2022-08-20T10:16:26;29.00;64.60
40323;DHT22;26030;51.164;17.100;2022-08-20T10:21:28;29.00;64.50
40323;DHT22;26030;51.164;17.100;2022-08-20T10:26:43;29.00;64.80
40323;DHT22;26030;51.164;17.100;2022-08-20T10:31:45;29.00;64.50
40323;DHT22;26030;51.164;17.100;2022-08-20T10:36:50;29.00;64.50
40323;DHT22;26030;51.164;17.100;2022-08-20T10:41:55;29.00;65.00
40323;DHT22;26030;51.164;17.100;2022-08-20T10:52:34;29.00;64.50
40323;DHT22;26030;51.164;17.100;2022-08-20T10:57:37;29.00;64.50
40323;DHT22;26030;51.164;17.100;2022-08-20T11:02:46;29.00;64.50
40323;DHT22;26030;51.164;17.100;2022-08-20T11:07:51;29.00;64.80
40323;DHT22;26030;51.164;17.100;2022-08-20T11:13:01;29.00;65.10
40323;DHT22;26030;51.164;17.100;2022-08-20T11:18:04;28.90;65.20
40323;DHT22;26030;51.164;17.100;2022-08-20T11:23:07;28.90;65.00
40323;DHT22;26030;51.164;17.100;2022-08-20T11:28:09;28.90;65.30
40323;DHT22;26030;51.164;17.100;2022-08-20T11:33:16;28.90;65.00
40323;DHT22;26030;51.164;17.100;2022-08-20T11:38:19;28.80;65.70
40323;DHT22;26030;51.164;17.100;2022-08-20T11:43:30;28.80;65.00
40323;DHT22;26030;51.164;17.100;2022-08-20T11:48:36;28.80;65.00
40323;DHT22;26030;51.164;17.100;2022-08-20T11:53:40;28.80;66.00
40323;DHT22;26030;51.164;17.100;2022-08-20T11:58:43;28.80;65.30
40323;DHT22;26030;51.164;17.100;2022-08-20T12:03:48;28.80;65.60
40323;DHT22;26030;51.164;17.100;2022-08-20T12:08:52;28.90;65.20
40323;DHT22;26030;51.164;17.100;2022-08-20T12:13:55;29.00;64.80
40323;DHT22;26030;51.164;17.100;2022-08-20T12:18:58;29.00;64.80
40323;DHT22;26030;51.164;17.100;2022-08-20T12:24:00;29.00;64.40
40323;DHT22;26030;51.164;17.100;2022-08-20T12:29:03;29.00;64.40
40323;DHT22;26030;51.164;17.100;2022-08-20T12:34:08;29.10;63.10
40323;DHT22;26030;51.164;17.100;2022-08-20T12:39:11;29.10;64.00
40323;DHT22;26030;51.164;17.100;2022-08-20T12:44:13;29.10;63.50
40323;DHT22;26030;51.164;17.100;2022-08-20T12:49:17;29.10;63.50
40323;DHT22;26030;51.164;17.100;2022-08-20T12:54:31;29.20;63.70
40323;DHT22;26030;51.164;17.100;2022-08-20T12:59:39;29.30;63.60
40323;DHT22;26030;51.164;17.100;2022-08-20T13:04:41;29.40;63.40
40323;DHT22;26030;51.164;17.100;2022-08-20T13:09:43;29.50;63.20
40323;DHT22;26030;51.164;17.100;2022-08-20T13:14:46;29.50;63.00
40323;DHT22;26030;51.164;17.100;2022-08-20T13:19:48;29.50;63.60
40323;DHT22;26030;51.164;17.100;2022-08-20T13:24:53;29.50;63.00
40323;DHT22;26030;51.164;17.100;2022-08-20T13:29:55;29.50;62.80
40323;DHT22;26030;51.164;17.100;2022-08-20T13:35:00;29.60;62.70
40323;DHT22;26030;51.164;17.100;2022-08-20T13:40:03;29.60;62.80
40323;DHT22;26030;51.164;17.100;2022-08-20T13:45:08;29.60;62.60
40323;DHT22;26030;51.164;17.100;2022-08-20T13:50:13;29.60;62.50
40323;DHT22;26030;51.164;17.100;2022-08-20T13:55:19;29.60;62.50
40323;DHT22;26030;51.164;17.100;2022-08-20T14:00:27;29.60;62.50
40323;DHT22;26030;51.164;17.100;2022-08-20T14:05:33;29.60;62.50
40323;DHT22;26030;51.164;17.100;2022-08-20T14:10:36;29.60;62.50
40323;DHT22;26030;51.164;17.100;2022-08-20T14:15:39;29.60;62.80
40323;DHT22;26030;51.164;17.100;2022-08-20T14:20:42;29.60;62.40
40323;DHT22;26030;51.164;17.100;2022-08-20T14:25:47;29.60;62.50
40323;DHT22;26030;51.164;17.100;2022-08-20T14:30:50;29.50;62.30
40323;DHT22;26030;51.164;17.100;2022-08-20T14:35:54;29.50;62.40
40323;DHT22;26030;51.164;17.100;2022-08-20T14:40:57;29.50;62.50
40323;DHT22;26030;51.164;17.100;2022-08-20T14:45:59;29.50;62.60
40323;DHT22;26030;51.164;17.100;2022-08-20T14:51:01;29.50;62.60
40323;DHT22;26030;51.164;17.100;2022-08-20T14:56:04;29.50;62.70
40323;DHT22;26030;51.164;17.100;2022-08-20T15:01:07;29.50;62.80
40323;DHT22;26030;51.164;17.100;2022-08-20T15:06:09;29.40;62.80
40323;DHT22;26030;51.164;17.100;2022-08-20T15:11:23;29.50;62.90
40323;DHT22;26030;51.164;17.100;2022-08-20T15:16:35;29.40;62.70
40323;DHT22;26030;51.164;17.100;2022-08-20T15:21:37;29.50;63.80
40323;DHT22;26030;51.164;17.100;2022-08-20T15:26:46;29.40;63.00
40323;DHT22;26030;51.164;17.100;2022-08-20T15:31:49;29.30;63.10
40323;DHT22;26030;51.164;17.100;2022-08-20T15:36:51;29.30;63.30
40323;DHT22;26030;51.164;17.100;2022-08-20T15:41:54;29.30;63.50
40323;DHT22;26030;51.164;17.100;2022-08-20T15:52:38;29.20;63.80
40323;DHT22;26030;51.164;17.100;2022-08-20T15:57:54;29.20;64.60
40323;DHT22;26030;51.164;17.100;2022-08-20T16:03:30;29.10;64.20
40323;DHT22;26030;51.164;17.100;2022-08-20T16:14:17;29.10;64.70
40323;DHT22;26030;51.164;17.100;2022-08-20T16:19:26;29.10;64.50
40323;DHT22;26030;51.164;17.100;2022-08-20T16:24:37;29.00;64.20
40323;DHT22;26030;51.164;17.100;2022-08-20T16:40:33;28.90;64.30
40323;DHT22;26030;51.164;17.100;2022-08-20T16:45:51;28.90;64.40
40323;DHT22;26030;51.164;17.100;2022-08-20T16:51:02;28.90;64.50
40323;DHT22;26030;51.164;17.100;2022-08-20T16:56:10;28.80;64.60
40323;DHT22;26030;51.164;17.100;2022-08-20T17:01:17;28.80;64.60
40323;DHT22;26030;51.164;17.100;2022-08-20T17:06:31;28.70;64.60
40323;DHT22;26030;51.164;17.100;2022-08-20T17:11:36;28.70;64.70
40323;DHT22;26030;51.164;17.100;2022-08-20T17:16:49;28.70;64.70
40323;DHT22;26030;51.164;17.100;2022-08-20T17:21:53;28.70;64.70
40323;DHT22;26030;51.164;17.100;2022-08-20T17:26:57;28.70;64.70
40323;DHT22;26030;51.164;17.100;2022-08-20T17:37:34;28.60;64.80
40323;DHT22;26030;51.164;17.100;2022-08-20T17:42:52;28.50;65.30
40323;DHT22;26030;51.164;17.100;2022-08-20T17:48:06;28.40;65.40
40323;DHT22;26030;51.164;17.100;2022-08-20T17:53:18;28.30;65.60
40323;DHT22;26030;51.164;17.100;2022-08-20T17:58:32;28.30;65.90
40323;DHT22;26030;51.164;17.100;2022-08-20T18:03:39;28.30;65.50
40323;DHT22;26030;51.164;17.100;2022-08-20T18:24:36;28.20;65.30
40323;DHT22;26030;51.164;17.100;2022-08-20T18:29:45;28.20;65.20
40323;DHT22;26030;51.164;17.100;2022-08-20T18:34:54;28.20;65.00
40323;DHT22;26030;51.164;17.100;2022-08-20T18:40:30;28.20;64.90
40323;DHT22;26030;51.164;17.100;2022-08-20T18:45:35;28.20;64.80
40323;DHT22;26030;51.164;17.100;2022-08-20T19:01:06;28.20;64.60
40323;DHT22;26030;51.164;17.100;2022-08-20T19:22:28;28.10;65.20
40323;DHT22;26030;51.164;17.100;2022-08-20T19:27:31;28.10;64.70
40323;DHT22;26030;51.164;17.100;2022-08-20T19:32:34;28.10;64.80
40323;DHT22;26030;51.164;17.100;2022-08-20T19:37:41;28.10;64.80
40323;DHT22;26030;51.164;17.100;2022-08-20T19:42:53;28.10;64.70
40323;DHT22;26030;51.164;17.100;2022-08-20T19:53:31;28.20;64.20
40323;DHT22;26030;51.164;17.100;2022-08-20T19:58:37;28.20;64.80
40323;DHT22;26030;51.164;17.100;2022-08-20T20:03:52;28.20;64.80
40323;DHT22;26030;51.164;17.100;2022-08-20T20:09:06;28.20;65.20
40323;DHT22;26030;51.164;17.100;2022-08-20T20:14:10;28.20;65.00
40323;DHT22;26030;51.164;17.100;2022-08-20T20:19:14;28.20;65.00
40323;DHT22;26030;51.164;17.100;2022-08-20T20:24:38;28.10;65.00
40323;DHT22;26030;51.164;17.100;2022-08-20T20:29:43;28.10;65.10
40323;DHT22;26030;51.164;17.100;2022-08-20T20:34:55;28.10;65.20
40323;DHT22;26030;51.164;17.100;2022-08-20T20:40:05;28.10;65.30
40323;DHT22;26030;51.164;17.100;2022-08-20T20:45:21;28.10;65.30
40323;DHT22;26030;51.164;17.100;2022-08-20T20:50:38;28.00;65.50
40323;DHT22;26030;51.164;17.100;2022-08-20T20:55:51;28.00;65.50
40323;DHT22;26030;51.164;17.100;2022-08-20T21:00:56;28.00;65.60
40323;DHT22;26030;51.164;17.100;2022-08-20T21:05:59;28.00;65.60
40323;DHT22;26030;51.164;17.100;2022-08-20T21:11:01;28.00;65.50
40323;DHT22;26030;51.164;17.100;2022-08-20T21:16:05;28.00;65.70
40323;DHT22;26030;51.164;17.100;2022-08-20T21:21:11;27.90;65.70
40323;DHT22;26030;51.164;17.100;2022-08-20T21:26:48;27.80;65.70
40323;DHT22;26030;51.164;17.100;2022-08-20T21:31:52;27.80;65.90
40323;DHT22;26030;51.164;17.100;2022-08-20T21:37:18;27.80;65.90
40323;DHT22;26030;51.164;17.100;2022-08-20T21:42:21;27.80;66.30
40323;DHT22;26030;51.164;17.100;2022-08-20T21:47:32;27.70;65.90
40323;DHT22;26030;51.164;17.100;2022-08-20T21:52:34;27.80;65.90
40323;DHT22;26030;51.164;17.100;2022-08-20T21:57:38;27.70;65.90
40323;DHT22;26030;51.164;17.100;2022-08-20T22:02:43;27.70;65.80
40323;DHT22;26030;51.164;17.100;2022-08-20T22:07:47;27.60;65.80
40323;DHT22;26030;51.164;17.100;2022-08-20T22:12:53;27.60;66.40
40323;DHT22;26030;51.164;17.100;2022-08-20T22:17:57;27.60;65.80
40323;DHT22;26030;51.164;17.100;2022-08-20T22:23:05;27.60;66.00
40323;DHT22;26030;51.164;17.100;2022-08-20T22:28:12;27.50;65.70
40323;DHT22;26030;51.164;17.100;2022-08-20T22:33:19;27.50;66.00
40323;DHT22;26030;51.164;17.100;2022-08-20T22:38:28;27.50;65.80
40323;DHT22;26030;51.164;17.100;2022-08-20T22:43:40;27.50;66.00
40323;DHT22;26030;51.164;17.100;2022-08-20T22:49:02;27.40;65.60
40323;DHT22;26030;51.164;17.100;2022-08-20T22:54:11;27.50;65.90
40323;DHT22;26030;51.164;17.100;2022-08-20T22:59:26;27.50;65.50
40323;DHT22;26030;51.164;17.100;2022-08-20T23:04:46;27.50;65.80
40323;DHT22;26030;51.164;17.100;2022-08-20T23:09:59;27.50;65.60
40323;DHT22;26030;51.164;17.100;2022-08-20T23:15:19;27.50;65.60
40323;DHT22;26030;51.164;17.100;2022-08-20T23:20:30;27.40;65.50
40323;DHT22;26030;51.164;17.100;2022-08-20T23:25:33;27.40;65.60
40323;DHT22;26030;51.164;17.100;2022-08-20T23:30:36;27.40;65.70
40323;DHT22;26030;51.164;17.100;2022-08-20T23:35:38;27.30;65.60
40323;DHT22;26030;51.164;17.100;2022-08-20T23:40:41;27.30;65.60
40323;DHT22;26030;51.164;17.100;2022-08-20T23:45:44;27.30;66.00
40323;DHT22;26030;51.164;17.100;2022-08-20T23:50:46;27.30;65.60
40323;DHT22;26030;51.164;17.100;2022-08-20T23:55:49;27.30;65.70
